Earlton, Canada
Current Conditions -  °F | °C
As of 1:53 PM on Saturday 20 Dec 2014 (Local Time) from CYXR Reporting Station
Haze Haze  
Wind Chill: -16°   Ceiling: 300
Heat Index: -16°   Visibility: 1.5mi
Dew Point: -18°   Wind: 2mph
Humidity: 85%   Direction: 200°SSW
Pressure: 30.29"   Gusts: NA
Location:  47.71°N, 79.82°W
Report Text: CYXR 201853Z AUTO 20002KT 1 1/2SM BR OVC003 M16/M18 A3029 RMK SLP285
Loading
Personal Weather Stations






























Interactive Weather Map New forecast layout! Learn more

10-Day Weather Forecast

Advertisements
Track Severe Weather on mobile